Time;durP1;ratioP1;P1;durP2;ratioP2;P2;SDS_P1;SDS_P2;PMS_P1;PMS_P2;Temp;Humidity;BMP_temperature;BMP_pressure;BME280_temperature;BME280_humidity;BME280_pressure;Samples;Min_cycle;Max_cycle;Signal;HPM_P1;HPM_P2
2022/05/03 00:01:31;;;;;;;8.35;6.60;;;;;;;15.86;52.12;100003.31;10377267;28;20048;-63
2022/05/03 00:06:56;;;;;;;7.63;6.70;;;;;;;15.93;52.54;100013.41;10368784;28;20041;-64
2022/05/03 00:12:11;;;;;;;7.00;6.40;;;;;;;15.70;53.25;100003.25;10385190;28;20053;-62
2022/05/03 00:17:18;;;;;;;8.15;6.90;;;;;;;15.86;52.54;100024.78;10379063;28;20567;-62
2022/05/03 00:22:21;;;;;;;13.02;7.28;;;;;;;15.85;52.57;100025.81;10375911;28;20076;-64
2022/05/03 00:27:25;;;;;;;7.93;7.22;;;;;;;15.77;52.98;100031.09;10376457;28;20113;-61
2022/05/03 00:32:26;;;;;;;7.65;6.88;;;;;;;15.66;53.07;100018.00;10375601;28;20150;-63
2022/05/03 00:37:28;;;;;;;7.38;6.50;;;;;;;15.39;53.63;100009.19;10375938;28;20742;-63
2022/05/03 00:42:33;;;;;;;7.50;6.80;;;;;;;15.41;53.90;99996.44;10374194;28;20045;-62
2022/05/03 00:47:49;;;;;;;7.47;6.78;;;;;;;15.55;53.66;100022.66;10376726;28;20044;-65
2022/05/03 00:52:58;;;;;;;7.40;6.78;;;;;;;15.43;54.33;100007.84;10374498;28;20603;-61
2022/05/03 00:58:30;;;;;;;8.15;7.28;;;;;;;15.52;54.17;100014.94;10374281;28;20524;-62
2022/05/03 01:03:45;;;;;;;7.50;6.85;;;;;;;15.51;53.76;100010.56;10374271;28;20056;-62
2022/05/03 01:08:53;;;;;;;8.32;6.78;;;;;;;15.51;54.09;100007.88;10374496;28;20695;-63
2022/05/03 01:14:25;;;;;;;7.78;7.00;;;;;;;15.30;54.33;100002.09;10376150;28;20140;-62
2022/05/03 01:19:33;;;;;;;7.43;6.82;;;;;;;15.36;54.58;100014.88;10376696;28;20046;-62
2022/05/03 01:25:13;;;;;;;7.68;6.97;;;;;;;15.37;55.07;100014.69;10372208;28;20049;-62
2022/05/03 01:30:16;;;;;;;7.85;7.10;;;;;;;15.34;54.75;100009.66;10368472;28;20164;-62
2022/05/03 01:35:22;;;;;;;7.80;7.10;;;;;;;15.24;54.54;100013.44;10371946;28;20045;-62
2022/05/03 01:40:28;;;;;;;7.95;7.25;;;;;;;15.27;55.13;100010.47;10372980;28;20693;-64
2022/05/03 01:45:32;;;;;;;7.57;6.85;;;;;;;15.06;54.99;99989.38;10368620;28;20045;-63
2022/05/03 01:50:50;;;;;;;8.18;7.35;;;;;;;15.16;55.23;100015.09;10370146;28;20441;-62
2022/05/03 01:56:19;;;;;;;8.18;7.38;;;;;;;15.09;55.67;100006.00;10375309;28;20377;-62
2022/05/03 02:01:26;;;;;;;9.68;7.93;;;;;;;15.08;55.71;100004.31;10374076;28;20057;-62
2022/05/03 02:06:58;;;;;;;8.43;7.57;;;;;;;15.10;55.70;100007.69;10375449;28;20056;-62
2022/05/03 02:12:08;;;;;;;8.75;7.13;;;;;;;15.10;55.68;100006.84;10343139;28;20034;-62
2022/05/03 02:17:44;;;;;;;7.38;6.68;;;;;;;15.05;55.60;100004.63;10372927;28;20135;-63
2022/05/03 02:23:06;;;;;;;8.55;7.70;;;;;;;14.98;55.86;100000.91;10372872;28;20060;-62
2022/05/03 02:28:24;;;;;;;7.95;7.15;;;;;;;14.96;56.01;100001.06;10371020;28;20055;-62
2022/05/03 02:33:28;;;;;;;8.65;7.85;;;;;;;14.89;56.28;99993.81;10385062;28;20132;-62
2022/05/03 02:38:36;;;;;;;9.65;8.77;;;;;;;14.90;56.48;99998.19;10371819;28;20043;-63
2022/05/03 02:43:38;;;;;;;9.05;7.70;;;;;;;14.70;55.94;99985.00;10372821;28;20773;-62
2022/05/03 02:49:04;;;;;;;8.35;7.65;;;;;;;14.80;56.89;100001.81;10373689;28;20071;-63
2022/05/03 02:54:37;;;;;;;8.43;7.63;;;;;;;14.86;56.68;100005.69;10360622;28;20037;-63
2022/05/03 03:05:09;;;;;;;9.25;7.70;;;;;;;14.65;57.05;99993.50;10368526;28;20403;-62
2022/05/03 03:10:19;;;;;;;8.50;7.78;;;;;;;14.70;57.38;99984.13;10366890;28;20068;-63
2022/05/03 03:15:27;;;;;;;10.68;7.68;;;;;;;14.80;56.66;99993.78;10368541;28;20065;-63
2022/05/03 03:20:28;;;;;;;8.77;7.45;;;;;;;14.77;56.83;99983.38;10369297;28;20050;-63
2022/05/03 03:25:31;;;;;;;8.77;8.07;;;;;;;14.82;56.59;99989.09;10371558;28;20727;-63
2022/05/03 03:30:34;;;;;;;8.23;7.43;;;;;;;14.83;56.80;99984.56;10368195;28;20129;-63
2022/05/03 03:35:36;;;;;;;8.52;7.63;;;;;;;14.59;56.58;99961.97;10366707;28;20501;-62
2022/05/03 03:40:38;;;;;;;9.88;7.65;;;;;;;14.74;56.90;99991.72;10366947;28;20059;-62
2022/05/03 03:45:41;;;;;;;7.65;6.88;;;;;;;14.74;57.15;99989.06;10368532;28;20923;-62
2022/05/03 03:50:44;;;;;;;8.07;7.27;;;;;;;14.70;57.28;99995.72;10370301;28;20757;-63
2022/05/03 03:55:46;;;;;;;8.30;7.60;;;;;;;14.65;57.45;99987.28;10368999;28;20139;-62
2022/05/03 04:00:48;;;;;;;8.52;7.65;;;;;;;14.73;56.92;99999.94;10368422;28;20054;-62
2022/05/03 04:05:49;;;;;;;8.18;7.15;;;;;;;14.64;58.14;99989.13;10367158;28;20673;-62
2022/05/03 04:10:53;;;;;;;10.13;8.02;;;;;;;14.78;57.10;100003.78;10370656;28;20141;-62
2022/05/03 04:15:55;;;;;;;9.95;8.02;;;;;;;14.83;57.47;100004.19;10370905;28;20698;-62
2022/05/03 04:20:56;;;;;;;8.23;7.43;;;;;;;14.85;57.15;100002.16;10368709;28;20491;-62
2022/05/03 04:25:58;;;;;;;10.13;7.13;;;;;;;14.58;58.07;100003.13;10375542;28;20704;-62
2022/05/03 04:30:59;;;;;;;8.95;8.02;;;;;;;14.56;58.10;99999.78;10380319;28;20073;-63
2022/05/03 04:36:01;;;;;;;8.65;7.85;;;;;;;14.76;57.01;100016.50;10378195;28;20115;-62
2022/05/03 04:41:03;;;;;;;8.73;7.82;;;;;;;14.77;57.08;100012.84;10379612;28;20056;-62
2022/05/03 04:46:04;;;;;;;9.43;8.57;;;;;;;14.73;57.69;100022.19;10376926;28;20124;-62
2022/05/03 04:51:06;;;;;;;8.38;7.55;;;;;;;14.75;57.24;100020.19;10387818;28;22885;-62
2022/05/03 04:56:14;;;;;;;8.70;7.72;;;;;;;14.77;57.66;100028.06;10338371;28;20049;-63
2022/05/03 05:01:17;;;;;;;8.32;7.53;;;;;;;14.76;56.85;100032.59;10347730;28;20164;-64
2022/05/03 05:06:19;;;;;;;8.65;7.80;;;;;;;14.79;57.25;100026.91;10349508;28;20060;-64
2022/05/03 05:11:20;;;;;;;8.38;7.57;;;;;;;14.54;56.94;100006.28;10348154;28;20046;-65
2022/05/03 05:16:22;;;;;;;8.73;7.82;;;;;;;14.77;57.25;100039.63;10353581;28;20046;-64
2022/05/03 05:21:23;;;;;;;8.77;7.97;;;;;;;14.84;56.87;100045.19;10344936;28;20779;-66
2022/05/03 05:26:25;;;;;;;8.27;7.43;;;;;;;14.83;56.62;100043.50;10344022;28;20096;-64
2022/05/03 05:31:26;;;;;;;8.52;7.47;;;;;;;14.90;56.59;100059.81;10349392;28;20478;-64
2022/05/03 05:36:27;;;;;;;8.35;7.55;;;;;;;14.90;56.32;100049.09;10360418;28;20058;-63
2022/05/03 05:41:29;;;;;;;8.65;7.85;;;;;;;14.90;56.52;100043.75;10346103;28;20049;-64
2022/05/03 05:46:30;;;;;;;9.35;7.18;;;;;;;14.90;56.06;100041.91;10351057;28;20063;-64
2022/05/03 05:51:32;;;;;;;8.80;7.93;;;;;;;14.81;56.39;100057.06;10351519;28;20053;-64
2022/05/03 05:56:33;;;;;;;9.73;8.10;;;;;;;14.98;56.42;100062.53;10346853;28;20542;-63
2022/05/03 06:01:41;;;;;;;10.82;8.35;;;;;;;15.04;56.60;100072.63;10351064;28;20606;-64
2022/05/03 06:06:43;;;;;;;8.48;7.63;;;;;;;15.29;56.43;100067.44;10349584;28;20744;-66
2022/05/03 06:11:44;;;;;;;8.10;7.30;;;;;;;15.46;55.36;100076.41;10350539;28;20132;-64
2022/05/03 06:16:54;;;;;;;8.18;7.43;;;;;;;15.51;54.92;100080.31;10350878;28;20053;-64
2022/05/03 06:21:55;;;;;;;10.30;7.50;;;;;;;15.50;54.71;100089.34;10352504;28;20525;-66
2022/05/03 06:26:58;;;;;;;7.38;6.78;;;;;;;15.52;54.55;100075.78;10348283;28;20058;-63
2022/05/03 06:32:00;;;;;;;7.93;7.23;;;;;;;15.51;55.04;100080.31;10347473;28;20079;-61
2022/05/03 06:37:02;;;;;;;8.52;7.57;;;;;;;15.62;54.62;100081.88;10350307;28;20050;-62
2022/05/03 06:42:06;;;;;;;8.30;7.38;;;;;;;15.64;54.85;100087.06;10350590;28;20046;-62
2022/05/03 06:47:07;;;;;;;9.30;8.40;;;;;;;15.80;54.38;100105.97;10346417;28;20053;-61
2022/05/03 06:52:09;;;;;;;8.95;7.97;;;;;;;15.89;54.16;100109.53;10348739;28;20053;-61
2022/05/03 06:57:10;;;;;;;8.38;7.53;;;;;;;15.94;54.13;100111.72;10348056;28;20057;-61
2022/05/03 07:02:12;;;;;;;8.18;7.35;;;;;;;16.06;54.14;100127.38;10363276;28;21357;-62
2022/05/03 07:07:13;;;;;;;8.93;8.00;;;;;;;15.95;53.45;100091.94;10356833;28;20141;-62
2022/05/03 07:12:15;;;;;;;9.00;8.10;;;;;;;16.31;53.00;100118.56;10350001;28;20150;-62
2022/05/03 07:22:46;;;;;;;11.27;9.77;;;;;;;16.20;53.09;100090.16;10347009;28;20059;-62
2022/05/03 07:27:48;;;;;;;8.05;7.35;;;;;;;16.42;53.11;100120.91;10345205;28;20056;-62
2022/05/03 07:32:49;;;;;;;9.18;8.20;;;;;;;16.57;52.61;100132.72;10363436;28;20949;-61
2022/05/03 07:37:51;;;;;;;15.10;9.02;;;;;;;16.67;52.15;100132.56;10347044;28;20045;-63
2022/05/03 07:42:52;;;;;;;8.55;7.75;;;;;;;16.77;52.21;100144.00;10346324;28;20092;-63
2022/05/03 07:47:54;;;;;;;8.52;7.63;;;;;;;17.06;52.36;100140.00;10346567;28;20124;-60
2022/05/03 07:52:55;;;;;;;7.82;7.05;;;;;;;17.26;51.58;100143.19;10341490;28;20060;-65
2022/05/03 07:57:56;;;;;;;10.63;8.30;;;;;;;17.45;50.27;100147.34;10347864;28;20164;-62
2022/05/03 08:02:58;;;;;;;10.65;7.85;;;;;;;17.44;50.45;100148.38;10350551;28;21225;-65
2022/05/03 08:07:59;;;;;;;7.88;7.10;;;;;;;17.51;50.08;100148.53;10354235;28;20053;-64
2022/05/03 08:13:01;;;;;;;8.35;7.55;;;;;;;17.80;50.00;100144.41;10349866;28;20381;-66
2022/05/03 08:18:02;;;;;;;7.75;7.05;;;;;;;18.09;49.25;100146.53;10354097;28;20059;-64
2022/05/03 08:23:04;;;;;;;8.13;7.20;;;;;;;18.24;48.64;100152.00;10352532;28;20053;-63
2022/05/03 08:28:06;;;;;;;8.45;7.75;;;;;;;18.29;48.13;100140.69;10355682;28;20068;-62
2022/05/03 08:33:07;;;;;;;15.73;8.13;;;;;;;18.39;48.36;100149.41;10352791;28;20056;-66
2022/05/03 08:43:29;;;;;;;8.98;8.07;;;;;;;18.26;47.51;100166.13;10351610;28;21078;-63
2022/05/03 08:48:35;;;;;;;9.02;7.88;;;;;;;18.49;48.07;100166.16;10351867;28;20140;-62
2022/05/03 08:53:37;;;;;;;8.25;7.45;;;;;;;19.19;46.88;100166.22;10349577;28;20504;-62
2022/05/03 08:58:39;;;;;;;8.10;7.40;;;;;;;19.41;45.42;100156.38;10353642;28;20108;-65
2022/05/03 09:03:40;;;;;;;8.07;7.03;;;;;;;19.47;46.02;100149.41;10350723;28;20057;-64
2022/05/03 09:08:42;;;;;;;10.32;8.18;;;;;;;19.21;45.84;100142.59;10349119;28;20053;-64
2022/05/03 09:13:45;;;;;;;9.30;6.68;;;;;;;19.70;46.21;100134.00;10360150;28;20495;-61
2022/05/03 09:18:47;;;;;;;10.02;7.93;;;;;;;20.47;43.78;100151.59;10375460;28;20148;-62
2022/05/03 09:24:01;;;;;;;7.47;6.78;;;;;;;20.78;42.09;100141.56;10352793;28;20216;-60
2022/05/03 09:29:14;;;;;;;7.63;6.93;;;;;;;20.73;42.38;100154.81;10354033;28;20155;-62
2022/05/03 09:34:22;;;;;;;10.52;8.15;;;;;;;21.47;40.25;100151.72;10348032;28;20183;-64
2022/05/03 09:39:27;;;;;;;9.05;7.15;;;;;;;21.51;41.30;100147.63;10348547;28;20060;-65
2022/05/03 09:44:28;;;;;;;8.73;7.07;;;;;;;22.47;39.56;100162.28;10349114;28;20704;-65
2022/05/03 09:49:35;;;;;;;7.15;6.38;;;;;;;22.84;38.88;100162.78;10345707;28;20313;-61
2022/05/03 09:54:46;;;;;;;7.60;6.90;;;;;;;23.51;37.17;100162.00;10342941;28;20179;-62
2022/05/03 09:59:49;;;;;;;8.00;6.20;;;;;;;23.84;37.74;100148.34;10343147;28;20227;-63
2022/05/03 10:04:53;;;;;;;7.57;6.57;;;;;;;23.88;36.69;100155.06;10345768;28;20045;-61
2022/05/03 10:09:54;;;;;;;7.82;6.68;;;;;;;23.04;37.43;100142.97;10357718;28;21279;-63
2022/05/03 10:14:56;;;;;;;9.60;6.28;;;;;;;23.45;38.19;100142.78;10346136;28;20140;-61
2022/05/03 10:20:42;;;;;;;7.35;6.72;;;;;;;24.21;36.34;100143.22;10346673;28;20107;-61
2022/05/03 10:25:42;;;;;;;7.05;5.60;;;;;;;25.47;34.02;100142.63;10344094;28;20053;-62
2022/05/03 10:31:05;;;;;;;8.02;7.22;;;;;;;26.81;31.67;100139.09;10360106;28;20469;-61
2022/05/03 10:36:32;;;;;;;6.78;6.05;;;;;;;26.29;30.93;100134.16;10340854;28;20159;-62
2022/05/03 10:41:58;;;;;;;6.53;5.80;;;;;;;26.04;33.20;100129.63;10344885;28;20041;-61
2022/05/03 10:47:03;;;;;;;6.53;4.65;;;;;;;26.40;32.10;100119.72;10316875;28;20103;-62
2022/05/03 10:52:16;;;;;;;7.75;5.28;;;;;;;26.38;31.59;100121.84;10342779;28;20547;-62
2022/05/03 10:57:17;;;;;;;6.43;5.60;;;;;;;26.54;31.76;100108.63;10345019;28;20077;-61
2022/05/03 11:02:21;;;;;;;7.10;5.80;;;;;;;27.02;31.43;100099.47;10344398;28;20131;-62
2022/05/03 11:07:24;;;;;;;6.45;5.70;;;;;;;27.56;31.47;100102.13;10341404;28;20059;-63
2022/05/03 11:12:48;;;;;;;6.88;6.25;;;;;;;25.65;32.81;100096.28;10342610;28;20042;-63
2022/05/03 11:17:50;;;;;;;6.95;5.03;;;;;;;26.80;31.80;100097.31;10342486;28;20139;-63
2022/05/03 11:22:51;;;;;;;7.22;4.93;;;;;;;26.78;32.64;100083.09;10343486;28;20140;-62
2022/05/03 11:27:53;;;;;;;4.80;4.38;;;;;;;27.39;30.97;100077.44;10342410;28;20072;-64
2022/05/03 11:32:56;;;;;;;;;;;;;;;27.91;30.52;100079.34;10349543;28;20049;-66
2022/05/03 11:37:57;;;;;;;4.78;4.38;;;;;;;27.88;29.67;100057.97;10352119;28;19920;-63
2022/05/03 11:42:59;;;;;;;3.92;3.63;;;;;;;27.31;30.79;100075.84;10353942;28;20908;-69
2022/05/03 11:48:03;;;;;;;;;;;;;;;27.12;30.79;100068.84;10359854;28;20136;-63
2022/05/03 11:58:35;;;;;;;5.32;4.25;;;;;;;26.51;31.14;100054.50;10352974;28;20049;-62
2022/05/03 12:03:58;;;;;;;5.32;4.93;;;;;;;26.67;30.71;100053.84;10348416;28;20132;-63
2022/05/03 12:09:00;;;;;;;4.95;3.90;;;;;;;26.56;31.78;100049.19;10348523;28;20107;-62
2022/05/03 12:14:01;;;;;;;5.15;4.65;;;;;;;26.90;30.24;100047.59;10352181;28;20059;-61
2022/05/03 12:19:02;;;;;;;5.37;4.10;;;;;;;26.21;31.51;100047.19;10348808;28;20575;-62
2022/05/03 12:24:06;;;;;;;6.73;3.70;;;;;;;26.53;32.26;100025.91;10353511;28;20974;-61
2022/05/03 12:29:08;;;;;;;5.32;3.90;;;;;;;26.20;31.51;100034.63;10347759;28;20064;-61
2022/05/03 12:34:20;;;;;;;4.32;3.92;;;;;;;26.39;31.21;100030.75;10346265;28;20075;-62
2022/05/03 12:39:23;;;;;;;5.65;4.53;;;;;;;26.48;30.86;100027.69;10349617;28;20049;-62
2022/05/03 12:44:25;;;;;;;4.75;4.28;;;;;;;26.54;31.19;100016.69;10351639;28;20819;-63
2022/05/03 12:49:27;;;;;;;5.43;4.75;;;;;;;26.06;32.03;100021.16;10355630;28;20206;-63
2022/05/03 12:54:29;;;;;;;6.90;5.43;;;;;;;26.26;31.80;100006.41;10361893;28;20127;-63
2022/05/03 12:59:31;;;;;;;6.77;4.70;;;;;;;25.99;32.20;100012.25;10346500;28;21695;-63
2022/05/03 13:04:32;;;;;;;4.55;4.15;;;;;;;25.96;31.71;100009.94;10346303;28;20045;-62
2022/05/03 13:09:34;;;;;;;5.90;4.28;;;;;;;25.98;32.07;100007.81;10345999;28;20150;-61
2022/05/03 13:14:36;;;;;;;5.10;4.57;;;;;;;25.53;32.54;100000.84;10346354;28;20053;-62
2022/05/03 13:19:37;;;;;;;6.50;4.25;;;;;;;25.85;32.09;99980.72;10343938;28;20045;-62
2022/05/03 13:24:39;;;;;;;6.07;4.38;;;;;;;26.33;31.38;99998.94;10346837;28;20073;-62
2022/05/03 13:29:41;;;;;;;5.20;4.68;;;;;;;26.05;31.18;99977.78;10349308;28;20053;-64
2022/05/03 13:34:42;;;;;;;4.93;4.43;;;;;;;25.33;33.00;99990.19;10351168;28;20057;-64
2022/05/03 13:45:04;;;;;;;5.13;4.45;;;;;;;24.62;33.66;99983.31;10344393;28;20139;-62
2022/05/03 13:50:06;;;;;;;6.10;3.97;;;;;;;24.74;33.43;99976.13;10358153;28;20102;-61
2022/05/03 13:55:09;;;;;;;7.60;5.00;;;;;;;24.91;33.18;99979.09;10348068;28;20060;-61
2022/05/03 14:00:10;;;;;;;5.70;4.97;;;;;;;24.07;33.09;99971.16;10343436;28;20142;-62
2022/05/03 14:05:13;;;;;;;4.90;4.40;;;;;;;23.90;34.38;99973.59;10355826;28;20756;-62
2022/05/03 14:10:14;;;;;;;6.17;4.53;;;;;;;24.18;33.25;99984.06;10360815;28;20068;-61
2022/05/03 14:15:16;;;;;;;5.15;4.55;;;;;;;24.23;33.09;99975.25;10346363;28;20056;-62
2022/05/03 14:20:18;;;;;;;5.88;4.55;;;;;;;24.24;33.54;99981.50;10348178;28;20590;-62
2022/05/03 14:25:23;;;;;;;5.83;5.00;;;;;;;23.83;33.09;99970.03;10339659;28;20118;-61
2022/05/03 14:30:25;;;;;;;4.60;4.20;;;;;;;23.93;34.07;99965.00;10343091;28;20063;-62
2022/05/03 14:35:26;;;;;;;6.60;5.90;;;;;;;23.45;33.80;99947.22;10346605;28;20079;-61
2022/05/03 14:40:28;;;;;;;5.47;4.97;;;;;;;23.49;34.83;99958.50;10345591;28;20053;-61
2022/05/03 14:45:29;;;;;;;6.93;4.68;;;;;;;23.50;34.61;99943.88;10346469;28;20075;-62
2022/05/03 14:50:31;;;;;;;5.68;5.07;;;;;;;23.55;35.21;99963.06;10342969;28;20132;-61
2022/05/03 14:55:33;;;;;;;8.13;4.80;;;;;;;23.53;35.29;99948.03;10342524;28;20128;-62
2022/05/03 15:05:42;;;;;;;5.60;5.10;;;;;;;23.07;35.49;99938.97;10342732;28;20088;-62
2022/05/03 15:10:43;;;;;;;5.68;5.10;;;;;;;23.33;34.94;99951.69;10346095;28;20144;-61
2022/05/03 15:15:45;;;;;;;10.32;4.88;;;;;;;23.02;35.62;99949.66;10346699;28;20053;-61
2022/05/03 15:20:49;;;;;;;5.15;4.60;;;;;;;23.08;36.42;99948.78;10344394;28;20053;-62
2022/05/03 15:25:52;;;;;;;5.40;4.65;;;;;;;23.17;35.88;99955.69;10344792;28;20053;-62
2022/05/03 15:31:00;;;;;;;5.35;4.32;;;;;;;22.93;36.40;99960.72;10344088;28;20053;-63
2022/05/03 15:36:01;;;;;;;5.25;4.55;;;;;;;22.95;35.96;99953.22;10341881;28;20065;-61
2022/05/03 15:41:04;;;;;;;8.75;5.47;;;;;;;22.85;36.07;99947.38;10346899;28;20046;-61
2022/05/03 15:46:07;;;;;;;5.80;4.72;;;;;;;22.65;36.19;99924.88;10346320;28;20050;-61
2022/05/03 15:51:09;;;;;;;6.38;5.35;;;;;;;22.53;36.60;99949.94;10352908;28;20061;-61
2022/05/03 15:56:10;;;;;;;4.70;4.10;;;;;;;22.43;36.83;99938.69;10348342;28;20212;-61
2022/05/03 16:01:12;;;;;;;7.93;5.45;;;;;;;22.07;37.30;99942.59;10345694;28;20065;-61
2022/05/03 16:06:15;;;;;;;5.30;4.60;;;;;;;22.12;37.67;99940.06;10344749;28;20095;-62
2022/05/03 16:11:16;;;;;;;7.03;4.80;;;;;;;22.12;37.61;99937.38;10349593;28;20653;-59
2022/05/03 16:16:18;;;;;;;4.90;4.43;;;;;;;22.19;37.13;99946.34;10350363;28;20226;-61
2022/05/03 16:21:19;;;;;;;7.22;5.00;;;;;;;22.20;37.43;99926.34;10364372;28;20077;-62
2022/05/03 16:26:22;;;;;;;7.15;5.95;;;;;;;22.27;37.40;99939.06;10364892;28;20057;-62
2022/05/03 16:31:24;;;;;;;6.77;5.20;;;;;;;22.25;37.37;99933.84;10358558;28;20119;-62
2022/05/03 16:47:07;;;;;;;5.15;4.60;;;;;;;21.98;37.75;99930.25;10353147;28;20045;-63
2022/05/03 16:52:13;;;;;;;7.63;4.43;;;;;;;21.91;37.72;99932.97;10350627;28;20053;-62
2022/05/03 16:57:16;;;;;;;5.07;4.20;;;;;;;21.82;38.04;99929.59;10348998;28;20129;-63
2022/05/03 17:02:22;;;;;;;6.03;4.57;;;;;;;21.86;38.05;99939.00;10345833;28;20983;-62
2022/05/03 17:07:23;;;;;;;5.05;4.07;;;;;;;21.83;38.13;99935.88;10349239;28;20053;-63
2022/05/03 17:12:25;;;;;;;4.72;4.13;;;;;;;21.64;38.18;99924.78;10354155;28;20539;-63
2022/05/03 17:17:27;;;;;;;4.75;4.10;;;;;;;21.84;38.22;99946.50;10353751;28;20056;-62
2022/05/03 17:22:29;;;;;;;6.15;4.53;;;;;;;21.76;38.32;99938.56;10354872;28;20058;-62
2022/05/03 17:27:30;;;;;;;5.18;4.43;;;;;;;21.79;38.12;99948.97;10346280;28;20106;-62
2022/05/03 17:32:32;;;;;;;5.53;5.03;;;;;;;21.78;38.42;99955.44;10346147;28;20145;-62
2022/05/03 17:37:34;;;;;;;4.85;4.40;;;;;;;21.76;38.64;99960.22;10348349;28;20095;-62
2022/05/03 17:42:44;;;;;;;5.13;4.65;;;;;;;21.66;38.83;99954.34;10350992;28;20763;-63
2022/05/03 17:47:46;;;;;;;5.22;4.60;;;;;;;21.62;39.02;99958.50;10346766;28;20833;-60
2022/05/03 17:58:24;;;;;;;6.30;4.85;;;;;;;21.37;39.98;99978.78;10230867;28;20049;-61
2022/05/03 18:03:26;;;;;;;5.70;5.00;;;;;;;21.35;40.08;99974.63;10348729;28;20045;-62
2022/05/03 18:08:28;;;;;;;7.32;5.15;;;;;;;21.23;40.36;99987.91;10344455;28;20045;-61
2022/05/03 18:13:30;;;;;;;6.25;5.18;;;;;;;21.05;40.75;99984.84;10349192;28;20049;-63
2022/05/03 18:18:31;;;;;;;5.15;4.65;;;;;;;20.88;40.57;99989.75;10349385;28;20060;-61
2022/05/03 18:23:33;;;;;;;5.18;4.68;;;;;;;20.79;40.92;99998.03;10351072;28;20041;-61
2022/05/03 18:28:35;;;;;;;5.13;4.63;;;;;;;20.63;41.13;99996.41;10347838;28;20046;-63
2022/05/03 18:33:38;;;;;;;6.33;5.73;;;;;;;20.48;42.18;100006.47;10351086;28;21269;-61
2022/05/03 18:38:40;;;;;;;6.88;6.28;;;;;;;20.36;42.30;100005.31;10349355;28;20083;-62
2022/05/03 18:43:41;;;;;;;7.45;5.90;;;;;;;20.27;42.32;100012.72;10355026;28;20133;-62
2022/05/03 18:48:43;;;;;;;6.32;5.20;;;;;;;20.16;42.49;100007.81;10354911;28;20073;-62
2022/05/03 18:53:44;;;;;;;6.00;5.47;;;;;;;20.01;42.75;100015.97;10349008;28;20057;-63
2022/05/03 18:58:46;;;;;;;5.70;5.20;;;;;;;19.91;42.23;100022.53;10363834;28;20057;-63
2022/05/03 19:03:47;;;;;;;5.93;5.40;;;;;;;19.82;43.01;100033.66;10345468;28;20053;-62
2022/05/03 19:08:49;;;;;;;5.70;5.20;;;;;;;19.68;42.98;100017.25;10344480;28;20059;-62
2022/05/03 19:13:51;;;;;;;5.03;4.55;;;;;;;19.68;43.54;100027.19;10347966;28;20065;-62
2022/05/03 19:18:52;;;;;;;5.82;5.43;;;;;;;19.38;44.48;100021.81;10347515;28;20054;-62
2022/05/03 19:34:34;;;;;;;7.20;6.55;;;;;;;18.84;46.36;100055.22;10348200;28;20049;-62
2022/05/03 19:39:37;;;;;;;6.60;6.07;;;;;;;18.59;47.09;100055.44;10348460;28;20112;-60
2022/05/03 19:44:40;;;;;;;6.28;5.78;;;;;;;18.82;47.05;100057.28;10362279;28;20064;-61
2022/05/03 19:49:41;;;;;;;7.27;6.03;;;;;;;18.68;47.52;100048.13;10345805;28;20640;-62
2022/05/03 19:54:43;;;;;;;6.85;6.15;;;;;;;18.49;48.79;100055.66;10350520;28;21039;-61
2022/05/03 19:59:44;;;;;;;6.82;6.22;;;;;;;18.38;48.82;100048.84;10356521;28;20535;-62
2022/05/03 20:04:45;;;;;;;6.95;6.35;;;;;;;18.52;48.80;100060.69;10359901;28;20112;-61
2022/05/03 20:09:47;;;;;;;7.50;6.53;;;;;;;18.00;48.54;100051.47;10370273;28;20530;-63
2022/05/03 20:14:49;;;;;;;6.07;5.55;;;;;;;18.13;48.71;100071.56;10353088;28;20227;-62
2022/05/03 20:19:50;;;;;;;6.47;5.78;;;;;;;18.22;48.08;100065.13;10352144;28;20057;-63
2022/05/03 20:24:52;;;;;;;7.82;6.43;;;;;;;18.15;48.28;100074.91;10353272;28;20049;-64
2022/05/03 20:29:54;;;;;;;6.53;6.03;;;;;;;18.10;48.56;100082.72;10376974;28;20075;-64
2022/05/03 20:34:55;;;;;;;9.75;5.43;;;;;;;18.12;48.59;100088.75;10378789;28;20045;-64
2022/05/03 20:39:57;;;;;;;5.85;5.35;;;;;;;18.13;48.42;100093.13;10377543;28;20164;-63
2022/05/03 20:44:58;;;;;;;6.32;5.82;;;;;;;18.02;48.27;100097.88;10377429;28;20597;-63
2022/05/03 20:50:01;;;;;;;7.97;6.15;;;;;;;18.06;49.03;100102.91;10377302;28;20053;-64
2022/05/03 20:55:07;;;;;;;8.07;6.90;;;;;;;17.94;48.02;100083.63;10378914;28;20627;-65
2022/05/03 21:00:10;;;;;;;6.35;5.75;;;;;;;17.96;47.59;100101.28;10376942;28;20041;-64
2022/05/03 21:05:11;;;;;;;7.95;6.22;;;;;;;17.78;47.58;100112.28;10382512;28;20060;-65
2022/05/03 21:10:13;;;;;;;6.65;5.97;;;;;;;17.60;47.68;100104.44;10396431;28;20132;-64
2022/05/03 21:15:14;;;;;;;6.13;5.65;;;;;;;17.39;47.92;100106.84;10380104;28;20502;-64
2022/05/03 21:20:16;;;;;;;7.85;7.07;;;;;;;17.18;47.98;100107.38;10375195;28;20073;-64
2022/05/03 21:25:17;;;;;;;6.60;6.00;;;;;;;17.14;47.82;100099.66;10373682;28;20055;-64
2022/05/03 21:30:18;;;;;;;6.90;6.22;;;;;;;17.24;48.14;100109.41;10369043;28;20255;-63
2022/05/03 21:35:20;;;;;;;7.18;6.13;;;;;;;17.26;47.48;100118.97;10373701;28;20075;-65
2022/05/03 21:40:21;;;;;;;7.50;6.90;;;;;;;17.22;47.63;100123.00;10371444;28;20060;-64
2022/05/03 21:45:23;;;;;;;7.47;6.55;;;;;;;17.22;47.69;100128.38;10371656;28;20627;-63
2022/05/03 21:50:24;;;;;;;6.95;6.20;;;;;;;17.20;47.65;100125.00;10374629;28;20052;-63
2022/05/03 21:55:27;;;;;;;7.32;6.60;;;;;;;17.16;47.27;100129.06;10373109;28;20080;-63
2022/05/03 22:00:47;;;;;;;7.43;6.72;;;;;;;16.86;48.23;100112.59;10371371;28;20547;-63
2022/05/03 22:05:49;;;;;;;8.18;6.13;;;;;;;16.77;48.10;100109.06;10388345;28;20456;-64
2022/05/03 22:10:50;;;;;;;6.32;5.82;;;;;;;16.92;48.81;100128.06;10379599;28;20068;-64
2022/05/03 22:15:52;;;;;;;7.55;5.70;;;;;;;17.01;47.69;100120.00;10373548;28;20053;-64
2022/05/03 22:20:53;;;;;;;8.52;6.53;;;;;;;16.93;47.35;100127.06;10372476;28;20049;-64
2022/05/03 22:25:55;;;;;;;6.60;6.00;;;;;;;16.82;47.21;100121.97;10371294;28;20049;-63
2022/05/03 22:30:56;;;;;;;7.68;5.97;;;;;;;16.80;47.55;100129.38;10371058;28;20048;-63
2022/05/03 22:35:58;;;;;;;7.18;5.18;;;;;;;16.85;47.10;100135.09;10375175;28;20136;-63
2022/05/03 22:41:00;;;;;;;6.50;5.97;;;;;;;16.60;46.72;100127.00;10373341;28;20056;-64
2022/05/03 22:46:01;;;;;;;6.50;5.90;;;;;;;16.63;46.77;100111.56;10370985;28;20085;-64
2022/05/03 22:51:03;;;;;;;6.45;5.30;;;;;;;16.42;47.81;100120.91;10369596;28;20056;-63
2022/05/03 22:56:05;;;;;;;6.80;5.38;;;;;;;16.64;47.47;100135.56;10370621;28;20133;-63
2022/05/03 23:01:06;;;;;;;5.20;4.43;;;;;;;16.56;47.93;100125.66;10372186;28;20053;-63
2022/05/03 23:06:07;;;;;;;7.18;5.57;;;;;;;16.66;46.98;100138.09;10371821;28;20332;-64
2022/05/03 23:11:09;;;;;;;6.47;5.47;;;;;;;16.65;46.26;100136.41;10371624;28;20100;-64
2022/05/03 23:16:10;;;;;;;5.68;5.18;;;;;;;16.67;46.07;100135.25;10372108;28;20132;-64
2022/05/03 23:21:11;;;;;;;5.15;4.65;;;;;;;16.43;46.55;100128.81;10373812;28;20061;-63
2022/05/03 23:26:13;;;;;;;6.25;5.35;;;;;;;16.35;46.54;100125.25;10406187;28;20045;-64
2022/05/03 23:31:14;;;;;;;5.20;4.70;;;;;;;16.37;46.36;100140.22;10386254;28;20493;-63
2022/05/03 23:36:16;;;;;;;5.68;4.50;;;;;;;16.25;46.56;100139.69;10382533;28;20045;-64
2022/05/03 23:41:17;;;;;;;5.25;4.75;;;;;;;16.07;46.63;100112.09;10380715;28;20112;-63
2022/05/03 23:46:19;;;;;;;5.32;3.97;;;;;;;16.22;46.20;100120.38;10378978;28;20053;-64
2022/05/03 23:51:20;;;;;;;4.88;4.28;;;;;;;16.15;45.86;100109.44;10379001;28;20057;-64
2022/05/03 23:56:21;;;;;;;5.32;4.82;;;;;;;16.10;46.65;100111.78;10379300;28;20049;-64
